Time;durP1;ratioP1;P1;durP2;ratioP2;P2;SDS_P1;SDS_P2;PMS_P1;PMS_P2;Temp;Humidity;BMP_temperature;BMP_pressure;BME280_temperature;BME280_humidity;BME280_pressure;Samples;Min_cycle;Max_cycle;Signal;HPM_P1;HPM_P2
2022/07/16 00:02:45;;;;;;;1.40;1.17;;;14.40;99.90;;;;;;5056389;28;20976;-88
2022/07/16 00:05:13;;;;;;;1.70;1.10;;;14.30;99.90;;;;;;5057567;28;20505;-87
2022/07/16 00:07:40;;;;;;;1.00;1.00;;;14.30;99.90;;;;;;5066036;28;20467;-87
2022/07/16 00:10:09;;;;;;;3.00;2.57;;;14.40;99.90;;;;;;5066283;28;21241;-88
2022/07/16 00:12:36;;;;;;;3.23;1.30;;;14.40;99.90;;;;;;5069008;28;20460;-88
2022/07/16 00:15:03;;;;;;;2.90;1.10;;;14.30;99.90;;;;;;5069880;28;20447;-89
2022/07/16 00:17:30;;;;;;;1.63;1.20;;;14.20;99.90;;;;;;5064769;28;20451;-88
2022/07/16 00:19:58;;;;;;;1.50;1.20;;;14.20;99.90;;;;;;5066706;28;21106;-90
2022/07/16 00:22:25;;;;;;;1.30;1.20;;;14.20;99.90;;;;;;5063929;28;20462;-89
2022/07/16 00:24:52;;;;;;;1.30;1.20;;;14.10;99.90;;;;;;5054780;28;20465;-87
2022/07/16 00:27:19;;;;;;;1.00;0.90;;;14.10;99.90;;;;;;5056784;28;20455;-88
2022/07/16 00:29:46;;;;;;;1.60;1.50;;;14.10;99.90;;;;;;5055884;28;20470;-88
2022/07/16 00:32:13;;;;;;;3.57;1.13;;;14.00;99.90;;;;;;5060748;28;20479;-88
2022/07/16 00:34:40;;;;;;;1.53;1.20;;;14.00;99.90;;;;;;5056899;28;20463;-89
2022/07/16 00:37:09;;;;;;;1.37;1.27;;;13.90;99.90;;;;;;5058080;28;20470;-88
2022/07/16 00:39:35;;;;;;;1.50;1.07;;;13.80;99.90;;;;;;5056509;28;20469;-91
2022/07/16 00:42:03;;;;;;;0.80;0.80;;;13.90;99.90;;;;;;5056692;28;20561;-88
2022/07/16 00:44:29;;;;;;;1.80;1.27;;;13.80;99.90;;;;;;5055346;28;21294;-88
2022/07/16 00:46:57;;;;;;;1.13;1.03;;;13.80;99.90;;;;;;5057835;28;20478;-88
2022/07/16 00:49:24;;;;;;;1.63;1.20;;;13.70;99.90;;;;;;5055265;28;20464;-89
2022/07/16 00:51:52;;;;;;;1.17;0.80;;;13.80;99.90;;;;;;5055751;28;20863;-90
2022/07/16 00:54:22;;;;;;;1.10;0.80;;;13.70;99.90;;;;;;5055498;28;20859;-91
2022/07/16 00:56:49;;;;;;;1.20;1.03;;;13.70;99.90;;;;;;5053993;28;20549;-89
2022/07/16 00:59:16;;;;;;;1.67;1.57;;;13.60;99.90;;;;;;5057234;28;20528;-90
2022/07/16 01:01:43;;;;;;;1.37;1.27;;;13.60;99.90;;;;;;5058566;28;21185;-88
2022/07/16 01:04:10;;;;;;;0.90;0.70;;;13.70;99.90;;;;;;5058304;28;20459;-88
2022/07/16 01:06:38;;;;;;;1.40;1.20;;;13.70;99.90;;;;;;5059518;28;20839;-90
2022/07/16 01:09:05;;;;;;;4.33;1.37;;;13.80;99.90;;;;;;5059759;28;20475;-88
2022/07/16 01:11:34;;;;;;;1.70;1.20;;;13.70;99.90;;;;;;5066160;28;21009;-89
2022/07/16 01:14:03;;;;;;;1.63;1.07;;;13.70;99.90;;;;;;5069303;28;20491;-88
2022/07/16 01:16:30;;;;;;;1.10;0.80;;;13.80;99.90;;;;;;5061907;28;20534;-88
2022/07/16 01:18:57;;;;;;;1.33;0.80;;;13.70;99.90;;;;;;5060658;28;20444;-88
2022/07/16 01:21:24;;;;;;;1.97;1.50;;;13.60;99.90;;;;;;5068010;28;20905;-88
2022/07/16 01:23:52;;;;;;;2.20;1.27;;;13.60;99.90;;;;;;5058894;28;20465;-89
2022/07/16 01:26:19;;;;;;;6.50;1.33;;;13.50;99.90;;;;;;5066026;28;20485;-87
2022/07/16 01:28:47;;;;;;;1.27;1.17;;;13.50;99.90;;;;;;5058326;28;20988;-88
2022/07/16 01:31:14;;;;;;;2.60;0.80;;;13.40;99.90;;;;;;5067003;28;20516;-87
2022/07/16 01:33:42;;;;;;;1.73;1.00;;;13.40;99.90;;;;;;5064387;28;20999;-90
2022/07/16 01:36:13;;;;;;;1.70;1.43;;;13.30;99.90;;;;;;5063204;28;20454;-89
2022/07/16 01:38:42;;;;;;;1.20;1.10;;;13.30;99.90;;;;;;5068872;28;20452;-90
2022/07/16 01:41:11;;;;;;;1.67;1.00;;;13.20;99.90;;;;;;5067846;28;20542;-88
2022/07/16 01:43:38;;;;;;;1.00;1.00;;;13.20;99.90;;;;;;5070084;28;20476;-88
2022/07/16 01:46:06;;;;;;;1.10;1.00;;;13.30;99.90;;;;;;5065573;28;20554;-88
2022/07/16 01:48:33;;;;;;;2.33;1.40;;;13.20;99.90;;;;;;5068409;28;20457;-89
2022/07/16 01:51:00;;;;;;;1.60;1.50;;;13.30;99.90;;;;;;5070485;28;20932;-89
2022/07/16 01:53:29;;;;;;;2.40;2.20;;;13.20;99.90;;;;;;5066173;28;20542;-88
2022/07/16 01:55:56;;;;;;;2.70;1.50;;;13.20;99.90;;;;;;5069152;28;21231;-88
2022/07/16 01:58:25;;;;;;;2.20;1.83;;;13.20;99.90;;;;;;5063501;28;20465;-87
2022/07/16 02:00:53;;;;;;;1.77;1.67;;;13.10;99.90;;;;;;5061999;28;20449;-89
2022/07/16 02:03:20;;;;;;;2.70;1.33;;;13.10;99.90;;;;;;5059212;28;20465;-88
2022/07/16 02:05:47;;;;;;;1.67;1.20;;;13.10;99.90;;;;;;5062963;28;20479;-88
2022/07/16 02:08:14;;;;;;;2.13;1.93;;;13.10;99.90;;;;;;5074813;28;20446;-90
2022/07/16 02:10:42;;;;;;;1.70;1.33;;;13.00;99.90;;;;;;5089036;28;20467;-91
2022/07/16 02:13:09;;;;;;;3.20;2.13;;;13.00;99.90;;;;;;5090670;28;20453;-88
2022/07/16 02:15:38;;;;;;;1.93;1.83;;;13.00;99.90;;;;;;5070648;28;20791;-88
2022/07/16 02:18:05;;;;;;;2.10;1.20;;;13.00;99.90;;;;;;5059683;28;20547;-88
2022/07/16 02:20:32;;;;;;;4.53;2.40;;;13.00;99.90;;;;;;5068407;28;20545;-88
2022/07/16 02:22:59;;;;;;;1.70;1.40;;;13.00;99.90;;;;;;5064494;28;20466;-88
2022/07/16 02:25:26;;;;;;;2.70;1.40;;;13.10;99.90;;;;;;5064993;28;20468;-88
2022/07/16 02:28:09;;;;;;;1.23;1.13;;;13.10;99.90;;;;;;5058621;28;20999;-88
2022/07/16 02:30:39;;;;;;;1.57;1.10;;;13.10;99.90;;;;;;5064863;28;21209;-88
2022/07/16 02:33:06;;;;;;;1.43;1.30;;;13.00;99.90;;;;;;5055588;28;21205;-88
2022/07/16 02:35:34;;;;;;;1.20;0.80;;;13.10;99.90;;;;;;5048358;28;20524;-87
2022/07/16 02:38:01;;;;;;;1.50;1.10;;;13.00;99.90;;;;;;5048661;28;20502;-87
2022/07/16 02:40:29;;;;;;;2.80;1.40;;;13.00;99.90;;;;;;5052834;28;20506;-88
2022/07/16 02:42:57;;;;;;;1.20;0.90;;;12.90;99.90;;;;;;5065368;28;20463;-88
2022/07/16 02:45:24;;;;;;;4.20;2.07;;;12.80;99.90;;;;;;5062094;28;20463;-88
2022/07/16 02:47:53;;;;;;;1.77;0.90;;;12.80;99.90;;;;;;5067008;28;20574;-88
2022/07/16 02:50:20;;;;;;;1.10;1.00;;;12.80;99.90;;;;;;5063770;28;20470;-88
2022/07/16 02:52:47;;;;;;;1.70;0.97;;;12.80;99.90;;;;;;5068041;28;20452;-89
2022/07/16 02:55:15;;;;;;;1.40;1.13;;;12.70;99.90;;;;;;5065401;28;20537;-88
2022/07/16 02:57:42;;;;;;;1.20;1.10;;;12.70;99.90;;;;;;5067640;28;20462;-88
2022/07/16 03:00:11;;;;;;;1.33;1.23;;;12.70;99.90;;;;;;5066135;28;20630;-89
2022/07/16 03:02:38;;;;;;;1.43;1.33;;;12.70;99.90;;;;;;5068121;28;20569;-88
2022/07/16 03:05:09;;;;;;;1.73;1.50;;;12.70;99.90;;;;;;5066162;28;20456;-88
2022/07/16 03:07:36;;;;;;;2.67;1.50;;;12.70;99.90;;;;;;5064605;28;20497;-88
2022/07/16 03:10:05;;;;;;;1.33;1.20;;;12.70;99.90;;;;;;5058165;28;20460;-88
2022/07/16 03:12:32;;;;;;;2.87;1.20;;;12.70;99.90;;;;;;5064027;28;20463;-89
2022/07/16 03:14:59;;;;;;;1.63;1.53;;;12.80;99.90;;;;;;5062359;28;21200;-89
2022/07/16 03:17:26;;;;;;;2.30;1.17;;;12.80;99.90;;;;;;5065915;28;20447;-88
2022/07/16 03:19:53;;;;;;;1.70;1.57;;;13.00;99.90;;;;;;5066474;28;20461;-88
2022/07/16 03:22:22;;;;;;;1.87;1.40;;;13.10;99.90;;;;;;5065105;28;20989;-88
2022/07/16 03:24:49;;;;;;;1.20;1.00;;;13.10;99.90;;;;;;5065933;28;20464;-88
2022/07/16 03:27:16;;;;;;;1.40;1.30;;;13.00;99.90;;;;;;5067047;28;20875;-88
2022/07/16 03:29:43;;;;;;;1.43;1.10;;;12.90;99.90;;;;;;5059237;28;20544;-88
2022/07/16 03:32:10;;;;;;;4.00;2.03;;;12.90;99.90;;;;;;5066741;28;20435;-88
2022/07/16 03:34:37;;;;;;;1.30;1.17;;;12.80;99.90;;;;;;5052789;28;20542;-88
2022/07/16 03:37:04;;;;;;;2.70;1.20;;;12.90;99.90;;;;;;5067726;28;20564;-88
2022/07/16 03:39:33;;;;;;;1.90;1.57;;;12.90;99.90;;;;;;5061441;28;20533;-88
2022/07/16 03:42:00;;;;;;;2.33;1.00;;;12.80;99.90;;;;;;5058811;28;20491;-89
2022/07/16 03:44:27;;;;;;;1.67;1.53;;;12.90;99.90;;;;;;5067159;28;20855;-88
2022/07/16 03:46:54;;;;;;;1.83;1.13;;;12.80;99.90;;;;;;5065620;28;20480;-88
2022/07/16 03:49:21;;;;;;;1.47;1.30;;;12.80;99.90;;;;;;5057586;28;20455;-88
2022/07/16 03:51:48;;;;;;;1.50;1.40;;;12.90;99.90;;;;;;5067082;28;20493;-88
2022/07/16 03:54:15;;;;;;;2.87;1.30;;;12.90;99.90;;;;;;5064451;28;20455;-90
2022/07/16 03:56:43;;;;;;;6.30;2.07;;;12.80;99.90;;;;;;5060058;28;20470;-88
2022/07/16 03:59:11;;;;;;;4.37;1.00;;;12.80;99.90;;;;;;5056559;28;20921;-88
2022/07/16 04:01:38;;;;;;;1.43;1.23;;;12.90;99.90;;;;;;5056749;28;20529;-88
2022/07/16 04:04:05;;;;;;;1.60;1.13;;;13.00;99.90;;;;;;5064682;28;20528;-88
2022/07/16 04:06:32;;;;;;;2.40;0.93;;;13.00;99.90;;;;;;5064233;28;20990;-88
2022/07/16 04:08:59;;;;;;;2.90;1.73;;;13.20;99.90;;;;;;5063989;28;20459;-89
2022/07/16 04:11:26;;;;;;;3.90;1.80;;;13.20;99.90;;;;;;5065762;28;21034;-88
2022/07/16 04:13:55;;;;;;;11.13;1.83;;;13.20;99.90;;;;;;5066179;28;20498;-91
2022/07/16 04:16:22;;;;;;;1.73;1.33;;;13.10;99.90;;;;;;5058686;28;21045;-88
2022/07/16 04:18:49;;;;;;;1.47;1.37;;;13.20;99.90;;;;;;5066248;28;20456;-88
2022/07/16 04:21:16;;;;;;;1.33;1.03;;;13.40;99.90;;;;;;5064785;28;20525;-88
2022/07/16 04:23:43;;;;;;;1.80;0.97;;;13.50;99.90;;;;;;5062569;28;20513;-88
2022/07/16 04:26:10;;;;;;;1.50;1.40;;;13.60;99.90;;;;;;5060709;28;20464;-88
2022/07/16 04:28:37;;;;;;;3.80;1.73;;;13.80;99.90;;;;;;5065360;28;20556;-91
2022/07/16 04:31:06;;;;;;;1.23;1.07;;;13.90;99.90;;;;;;5067320;28;20447;-88
2022/07/16 04:33:33;;;;;;;4.10;1.07;;;13.90;99.90;;;;;;5049073;28;20475;-92
2022/07/16 04:36:00;;;;;;;1.53;1.20;;;13.90;99.90;;;;;;5058540;28;20458;-88
2022/07/16 04:38:27;;;;;;;3.90;2.17;;;13.80;99.90;;;;;;5061428;28;20520;-88
2022/07/16 04:40:54;;;;;;;1.67;1.20;;;13.90;99.90;;;;;;5053629;28;20514;-88
2022/07/16 04:43:21;;;;;;;3.80;1.40;;;13.90;99.90;;;;;;5066901;28;20945;-89
2022/07/16 04:45:48;;;;;;;1.10;1.00;;;14.10;99.90;;;;;;5061587;28;20719;-88
2022/07/16 04:48:16;;;;;;;1.53;1.43;;;14.10;99.90;;;;;;5061044;28;20494;-89
2022/07/16 04:50:43;;;;;;;1.80;1.07;;;14.30;99.90;;;;;;5057625;28;20837;-88
2022/07/16 04:53:10;;;;;;;1.87;1.20;;;14.50;99.90;;;;;;5060974;28;20454;-88
2022/07/16 04:55:37;;;;;;;2.00;1.50;;;14.70;99.90;;;;;;5063544;28;20941;-88
2022/07/16 04:58:05;;;;;;;2.17;1.87;;;15.00;99.90;;;;;;5061632;28;20466;-87
2022/07/16 05:00:32;;;;;;;1.77;1.30;;;15.20;99.90;;;;;;5062936;28;20811;-91
2022/07/16 05:02:59;;;;;;;1.37;1.27;;;15.50;99.90;;;;;;5065003;28;22091;-88
2022/07/16 05:05:30;;;;;;;1.30;1.20;;;15.60;99.90;;;;;;5088794;28;20503;-88
2022/07/16 05:08:00;;;;;;;2.17;1.03;;;15.80;99.90;;;;;;5072379;28;20541;-90
2022/07/16 05:10:29;;;;;;;1.93;1.53;;;15.80;99.90;;;;;;5067927;28;20477;-88
2022/07/16 05:12:57;;;;;;;3.93;1.17;;;16.00;99.90;;;;;;5061820;28;20454;-88
2022/07/16 05:15:24;;;;;;;1.17;0.93;;;16.10;99.90;;;;;;5060909;28;20540;-90
2022/07/16 05:17:51;;;;;;;2.80;1.40;;;16.30;99.90;;;;;;5059244;28;20785;-91
2022/07/16 05:20:18;;;;;;;2.90;2.03;;;16.50;99.90;;;;;;5065801;28;20497;-87
2022/07/16 05:22:47;;;;;;;3.03;1.63;;;16.70;99.90;;;;;;5055045;28;20455;-87
2022/07/16 05:25:15;;;;;;;2.10;1.90;;;16.60;99.90;;;;;;5058144;28;20952;-88
2022/07/16 05:27:42;;;;;;;1.77;1.63;;;16.40;99.90;;;;;;5066918;28;21048;-88
2022/07/16 05:30:10;;;;;;;1.10;1.00;;;16.50;99.90;;;;;;5067192;28;20582;-87
2022/07/16 05:32:38;;;;;;;1.77;1.67;;;16.70;99.90;;;;;;5064762;28;20529;-90
2022/07/16 05:35:06;;;;;;;2.80;1.80;;;16.80;99.90;;;;;;5063967;28;20508;-87
2022/07/16 05:37:33;;;;;;;3.07;1.37;;;16.60;99.90;;;;;;5057673;28;20536;-88
2022/07/16 05:40:01;;;;;;;2.50;2.30;;;17.10;99.90;;;;;;5058236;28;20459;-88
2022/07/16 05:42:28;;;;;;;1.40;1.30;;;17.20;99.90;;;;;;5047667;28;20437;-88
2022/07/16 05:44:55;;;;;;;1.70;1.60;;;17.30;99.90;;;;;;5061890;28;20471;-90
2022/07/16 05:47:23;;;;;;;1.73;1.63;;;17.40;99.90;;;;;;5056898;28;20497;-90
2022/07/16 05:49:54;;;;;;;2.67;1.70;;;17.40;99.90;;;;;;5051783;28;20589;-87
2022/07/16 05:52:21;;;;;;;3.57;2.67;;;17.30;99.90;;;;;;5052061;28;20460;-88
2022/07/16 05:54:48;;;;;;;6.40;2.30;;;17.20;99.90;;;;;;5053257;28;20526;-88
2022/07/16 05:57:16;;;;;;;2.10;1.90;;;17.40;99.90;;;;;;5054820;28;20463;-88
2022/07/16 05:59:43;;;;;;;2.73;2.53;;;17.70;99.90;;;;;;5054547;28;21501;-89
2022/07/16 06:02:10;;;;;;;1.73;1.63;;;17.60;99.90;;;;;;5056545;28;20451;-89
2022/07/16 06:04:37;;;;;;;16.60;3.40;;;17.70;99.90;;;;;;5051289;28;20469;-88
2022/07/16 06:07:04;;;;;;;1.40;1.30;;;17.50;99.90;;;;;;5051418;28;20492;-90
2022/07/16 06:09:31;;;;;;;5.03;2.27;;;17.40;99.90;;;;;;5057690;28;21123;-89
2022/07/16 06:11:58;;;;;;;2.03;1.63;;;17.40;99.90;;;;;;5049725;28;20441;-87
2022/07/16 06:14:26;;;;;;;2.00;1.80;;;17.30;99.90;;;;;;5053460;28;20866;-87
2022/07/16 06:16:54;;;;;;;2.53;2.37;;;17.50;99.90;;;;;;5055509;28;21045;-90
2022/07/16 06:19:21;;;;;;;2.83;2.00;;;17.60;99.90;;;;;;5050790;28;20444;-88
2022/07/16 06:21:48;;;;;;;2.87;2.20;;;17.40;99.90;;;;;;5056000;28;20460;-90
2022/07/16 06:24:15;;;;;;;2.93;2.00;;;17.70;99.90;;;;;;5055732;28;20454;-88
2022/07/16 06:26:46;;;;;;;3.67;2.17;;;17.70;99.90;;;;;;5049890;28;20460;-88
2022/07/16 06:29:14;;;;;;;2.77;2.37;;;17.80;99.90;;;;;;5053970;28;20456;-89
2022/07/16 06:31:44;;;;;;;9.10;2.00;;;18.00;99.90;;;;;;5054097;28;21030;-89
2022/07/16 06:34:11;;;;;;;3.30;3.00;;;18.00;99.90;;;;;;5050845;28;20936;-89
2022/07/16 06:36:38;;;;;;;2.03;1.87;;;18.10;99.90;;;;;;5052339;28;20513;-88
2022/07/16 06:39:06;;;;;;;1.97;1.87;;;18.20;99.90;;;;;;5051658;28;20522;-88
2022/07/16 06:41:33;;;;;;;1.83;1.60;;;18.10;99.90;;;;;;5051046;28;20441;-88
2022/07/16 06:44:00;;;;;;;2.23;2.13;;;18.30;99.90;;;;;;5053641;28;21042;-90
2022/07/16 06:46:27;;;;;;;2.27;1.50;;;18.30;99.90;;;;;;5052176;28;20440;-88
2022/07/16 06:48:55;;;;;;;2.50;2.07;;;18.30;99.90;;;;;;5053102;28;20491;-88
2022/07/16 06:51:22;;;;;;;1.90;1.80;;;18.40;99.90;;;;;;5051682;28;20521;-89
2022/07/16 06:53:50;;;;;;;2.97;2.60;;;18.50;99.90;;;;;;5065995;28;20464;-87
2022/07/16 06:56:17;;;;;;;2.60;1.90;;;18.60;99.90;;;;;;5058362;28;20452;-88
2022/07/16 06:58:44;;;;;;;3.47;2.60;;;18.50;99.90;;;;;;5061741;28;20459;-88
2022/07/16 07:01:11;;;;;;;2.37;2.17;;;18.70;99.90;;;;;;5066004;28;20869;-87
2022/07/16 07:03:39;;;;;;;2.10;1.80;;;18.90;99.90;;;;;;5063871;28;20926;-88
2022/07/16 07:06:08;;;;;;;1.93;1.83;;;18.90;99.90;;;;;;5059680;28;20462;-89
2022/07/16 07:08:35;;;;;;;3.20;1.77;;;19.20;99.90;;;;;;5064804;28;20484;-89
2022/07/16 07:11:03;;;;;;;2.93;2.20;;;19.40;99.90;;;;;;5060570;28;20476;-89
2022/07/16 07:13:30;;;;;;;1.40;1.30;;;19.40;99.90;;;;;;5061892;28;20469;-88
2022/07/16 07:15:58;;;;;;;2.80;1.67;;;19.40;99.90;;;;;;5066945;28;20467;-88
2022/07/16 07:18:25;;;;;;;1.87;1.77;;;19.80;99.90;;;;;;5059814;28;20467;-88
2022/07/16 07:20:52;;;;;;;1.97;1.60;;;20.00;99.90;;;;;;5051583;28;21038;-89
2022/07/16 07:23:21;;;;;;;1.33;1.23;;;20.10;99.90;;;;;;5053017;28;20825;-90
2022/07/16 07:25:48;;;;;;;1.50;1.40;;;20.00;99.90;;;;;;5053366;28;20457;-89
2022/07/16 07:28:15;;;;;;;1.93;1.53;;;19.90;99.90;;;;;;5058640;28;20499;-88
2022/07/16 07:30:42;;;;;;;1.77;1.50;;;20.10;99.90;;;;;;5060791;28;20488;-88
2022/07/16 07:33:09;;;;;;;3.17;2.00;;;20.40;99.90;;;;;;5062292;28;20463;-88
2022/07/16 07:35:36;;;;;;;1.77;1.63;;;20.30;99.90;;;;;;5056239;28;20514;-88
2022/07/16 07:38:03;;;;;;;5.27;2.27;;;20.40;99.90;;;;;;5055761;28;20542;-88
2022/07/16 07:40:32;;;;;;;2.57;2.40;;;20.30;99.70;;;;;;5055357;28;20564;-90
2022/07/16 07:42:59;;;;;;;1.37;1.20;;;20.40;99.60;;;;;;5056363;28;21085;-89
2022/07/16 07:45:27;;;;;;;1.10;1.00;;;20.70;98.60;;;;;;5059489;28;20460;-89
2022/07/16 07:47:54;;;;;;;1.30;0.83;;;20.80;99.40;;;;;;5063467;28;20615;-87
2022/07/16 07:50:21;;;;;;;3.50;1.30;;;20.90;96.30;;;;;;5067569;28;20447;-90
2022/07/16 07:52:48;;;;;;;1.90;1.47;;;20.80;97.20;;;;;;5066432;28;20448;-88
2022/07/16 07:55:15;;;;;;;1.37;1.27;;;21.00;96.80;;;;;;5066528;28;20475;-89
2022/07/16 07:57:44;;;;;;;1.80;1.30;;;21.00;96.20;;;;;;5072854;28;20488;-88
2022/07/16 08:00:11;;;;;;;4.40;1.20;;;21.20;96.20;;;;;;5088145;28;20454;-90
2022/07/16 08:02:42;;;;;;;1.10;1.00;;;21.20;95.10;;;;;;5081658;28;20452;-88
2022/07/16 08:05:09;;;;;;;1.67;1.00;;;21.30;95.10;;;;;;5062740;28;20443;-89
2022/07/16 08:07:36;;;;;;;1.43;1.17;;;21.40;96.00;;;;;;5054705;28;22434;-88
2022/07/16 08:10:04;;;;;;;1.30;0.90;;;21.50;93.80;;;;;;5065216;28;20447;-88
2022/07/16 08:12:31;;;;;;;1.97;1.33;;;21.60;94.50;;;;;;5060761;28;20447;-89
2022/07/16 08:14:59;;;;;;;1.40;1.30;;;21.60;93.50;;;;;;5060383;28;20463;-89
2022/07/16 08:17:26;;;;;;;1.70;1.30;;;21.60;94.70;;;;;;5059343;28;20513;-90
2022/07/16 08:19:53;;;;;;;2.37;1.00;;;21.80;95.00;;;;;;5062212;28;20524;-89
2022/07/16 08:22:20;;;;;;;1.53;1.23;;;21.90;93.70;;;;;;5060579;28;20457;-89
2022/07/16 08:27:32;;;;;;;1.17;1.07;;;22.10;92.70;;;;;;5066235;28;20451;-89
2022/07/16 08:30:00;;;;;;;1.60;1.17;;;22.40;92.20;;;;;;5059010;28;20465;-89
2022/07/16 08:32:27;;;;;;;1.33;1.23;;;22.60;92.70;;;;;;5062636;28;20552;-89
2022/07/16 08:34:54;;;;;;;4.00;1.27;;;22.60;90.30;;;;;;5051006;28;21078;-89
2022/07/16 08:37:35;;;;;;;1.33;1.23;;;22.60;91.80;;;;;;5062316;28;20471;-90
2022/07/16 08:40:04;;;;;;;1.47;1.33;;;22.70;91.60;;;;;;5063347;28;20483;-89
2022/07/16 08:42:33;;;;;;;2.50;1.13;;;22.60;90.30;;;;;;5055725;28;20471;-88
2022/07/16 08:45:03;;;;;;;1.13;1.03;;;22.70;90.10;;;;;;5059538;28;20597;-89
2022/07/16 08:47:32;;;;;;;3.50;1.40;;;23.10;91.30;;;;;;5065158;28;20452;-90
2022/07/16 08:49:59;;;;;;;1.00;1.00;;;22.90;85.40;;;;;;5061336;28;20503;-89
2022/07/16 08:52:28;;;;;;;0.90;0.77;;;23.00;88.20;;;;;;5062690;28;20455;-89
2022/07/16 08:54:56;;;;;;;1.20;1.10;;;23.20;85.60;;;;;;5064040;28;20545;-89
2022/07/16 08:57:24;;;;;;;1.10;0.80;;;22.80;85.40;;;;;;5063580;28;20456;-90
2022/07/16 08:59:53;;;;;;;1.27;1.17;;;22.80;88.20;;;;;;5066876;28;20505;-90
2022/07/16 09:02:21;;;;;;;1.53;1.17;;;22.90;85.10;;;;;;5063132;28;20778;-89
2022/07/16 09:04:48;;;;;;;5.10;1.40;;;23.10;87.80;;;;;;5061583;28;20447;-89
2022/07/16 09:07:15;;;;;;;0.60;0.60;;;22.90;78.70;;;;;;5062406;28;20555;-89
2022/07/16 09:09:44;;;;;;;1.13;0.97;;;23.10;82.40;;;;;;5062248;28;20475;-90
2022/07/16 09:12:11;;;;;;;3.13;0.93;;;23.20;81.10;;;;;;5059296;28;20455;-88
2022/07/16 09:14:39;;;;;;;1.37;0.90;;;23.10;79.40;;;;;;5062120;28;20464;-88
2022/07/16 09:17:06;;;;;;;3.80;0.80;;;23.30;78.60;;;;;;5053577;28;20499;-91
2022/07/16 09:19:34;;;;;;;1.10;1.00;;;23.30;78.90;;;;;;5052260;28;20544;-89
2022/07/16 09:22:04;;;;;;;1.13;1.00;;;23.40;78.90;;;;;;5059947;28;20821;-90
2022/07/16 09:24:37;;;;;;;1.00;0.90;;;23.10;78.30;;;;;;5059986;28;20463;-90
2022/07/16 09:27:07;;;;;;;1.87;1.40;;;23.10;78.90;;;;;;5068178;28;20459;-89
2022/07/16 09:29:36;;;;;;;1.40;1.13;;;23.30;77.60;;;;;;5055117;28;21046;-89
2022/07/16 09:32:04;;;;;;;0.87;0.87;;;23.60;84.60;;;;;;5057835;28;20526;-90
2022/07/16 09:34:31;;;;;;;1.00;0.70;;;23.70;80.20;;;;;;5066654;28;20536;-91
2022/07/16 09:37:02;;;;;;;1.17;1.00;;;23.80;76.00;;;;;;5057941;28;20454;-89
2022/07/16 09:39:30;;;;;;;2.03;1.33;;;23.60;77.40;;;;;;5062376;28;20845;-90
2022/07/16 09:41:57;;;;;;;0.80;0.70;;;23.60;77.70;;;;;;5065280;28;20467;-90
2022/07/16 09:44:26;;;;;;;1.33;1.10;;;23.80;78.60;;;;;;5063118;28;20509;-91
2022/07/16 09:47:06;;;;;;;1.50;1.40;;;23.70;78.00;;;;;;5063601;28;20981;-89
2022/07/16 09:49:36;;;;;;;0.90;0.80;;;24.00;78.10;;;;;;5068397;28;20541;-90
2022/07/16 09:52:05;;;;;;;0.97;0.73;;;24.00;74.30;;;;;;5059356;28;20930;-89
2022/07/16 09:54:34;;;;;;;1.93;0.90;;;23.70;73.90;;;;;;5066377;28;20455;-89
2022/07/16 09:57:15;;;;;;;1.00;0.80;;;23.90;75.50;;;;;;5066040;28;20451;-89
2022/07/16 09:59:43;;;;;;;2.00;1.60;;;23.70;74.60;;;;;;5058111;28;20947;-89
2022/07/16 10:02:10;;;;;;;1.23;0.70;;;23.90;75.50;;;;;;5061506;28;20472;-90
2022/07/16 10:04:38;;;;;;;1.00;1.00;;;24.20;73.60;;;;;;5062208;28;20530;-89
2022/07/16 10:07:07;;;;;;;1.50;1.40;;;23.90;72.10;;;;;;5060535;28;20464;-89
2022/07/16 10:09:34;;;;;;;2.87;1.00;;;23.50;73.00;;;;;;5063390;28;20479;-89
2022/07/16 10:12:06;;;;;;;1.10;1.00;;;23.30;70.00;;;;;;5064859;28;20476;-90
2022/07/16 10:14:36;;;;;;;0.97;0.90;;;23.70;75.80;;;;;;5060292;28;20487;-90
2022/07/16 10:17:13;;;;;;;1.47;1.30;;;23.80;72.90;;;;;;5053400;28;20533;-91
2022/07/16 10:19:41;;;;;;;2.00;1.83;;;23.80;71.00;;;;;;5055296;28;20469;-89
2022/07/16 10:22:28;;;;;;;1.40;0.87;;;23.80;72.20;;;;;;5056075;28;20947;-90
2022/07/16 10:24:56;;;;;;;1.63;0.80;;;23.60;71.20;;;;;;5062718;28;20504;-88
2022/07/16 10:27:27;;;;;;;1.53;0.90;;;23.80;73.40;;;;;;5057635;28;20456;-90
2022/07/16 10:30:09;;;;;;;1.03;0.97;;;23.60;71.90;;;;;;5054206;28;20617;-88
2022/07/16 10:33:13;;;;;;;0.80;0.80;;;23.50;72.40;;;;;;5058078;28;20963;-89
2022/07/16 10:35:46;;;;;;;1.20;1.10;;;23.80;74.90;;;;;;5058282;28;20467;-90
2022/07/16 10:38:16;;;;;;;2.20;1.03;;;23.90;69.50;;;;;;5056054;28;20514;-90
2022/07/16 10:40:45;;;;;;;1.07;0.80;;;24.00;73.10;;;;;;5062826;28;20487;-90
2022/07/16 10:43:17;;;;;;;1.70;0.93;;;24.10;71.80;;;;;;5065064;28;20470;-90
2022/07/16 10:45:58;;;;;;;0.83;0.77;;;24.10;69.20;;;;;;5061097;28;20468;-90
2022/07/16 10:48:27;;;;;;;1.07;0.97;;;23.30;71.40;;;;;;5071618;28;20478;-89
2022/07/16 10:51:11;;;;;;;1.90;1.30;;;23.20;72.10;;;;;;5063884;28;20463;-90
2022/07/16 10:54:30;;;;;;;1.00;0.97;;;23.80;72.60;;;;;;5090453;28;20439;-89
2022/07/16 10:57:00;;;;;;;0.97;0.87;;;24.00;68.80;;;;;;5070333;28;20464;-91
2022/07/16 10:59:29;;;;;;;1.23;1.20;;;23.60;70.50;;;;;;5058274;28;20460;-88
2022/07/16 11:01:58;;;;;;;1.03;0.93;;;23.30;70.60;;;;;;5062234;28;20459;-89
2022/07/16 11:04:35;;;;;;;1.00;1.00;;;23.30;70.30;;;;;;5062287;28;20456;-90
2022/07/16 11:07:03;;;;;;;1.27;1.17;;;23.60;71.60;;;;;;5064509;28;20572;-89
2022/07/16 11:09:32;;;;;;;1.27;1.17;;;24.10;72.80;;;;;;5067165;28;20484;-89
2022/07/16 11:12:10;;;;;;;1.10;0.93;;;24.40;69.40;;;;;;5062672;28;20546;-90
2022/07/16 11:14:38;;;;;;;0.60;0.60;;;24.30;68.60;;;;;;5059532;28;20455;-89
2022/07/16 11:17:05;;;;;;;1.00;0.80;;;24.30;68.60;;;;;;5065586;28;24889;-91
2022/07/16 11:19:39;;;;;;;2.40;0.70;;;24.40;70.80;;;;;;5057293;28;20546;-89
2022/07/16 11:22:07;;;;;;;6.30;1.00;;;24.60;71.10;;;;;;5058156;28;20459;-89
2022/07/16 11:24:34;;;;;;;1.77;0.80;;;24.60;69.10;;;;;;5063941;28;20927;-89
2022/07/16 11:27:03;;;;;;;1.30;0.80;;;24.90;68.40;;;;;;5058188;28;20541;-88
2022/07/16 11:29:31;;;;;;;1.37;1.03;;;24.50;68.40;;;;;;5067054;28;20479;-90
2022/07/16 11:32:00;;;;;;;1.97;1.33;;;24.40;68.90;;;;;;5064359;28;20859;-89
2022/07/16 11:34:32;;;;;;;2.60;1.27;;;24.80;70.90;;;;;;5057492;28;20456;-90
2022/07/16 11:37:00;;;;;;;1.20;1.10;;;24.90;68.10;;;;;;5058689;28;20455;-90
2022/07/16 11:39:28;;;;;;;1.10;1.00;;;25.20;68.50;;;;;;5055441;28;20501;-89
2022/07/16 11:41:58;;;;;;;1.23;1.00;;;25.20;66.00;;;;;;5059281;28;20463;-90
2022/07/16 11:44:26;;;;;;;1.57;0.93;;;25.20;67.50;;;;;;5058574;28;20971;-90
2022/07/16 11:46:57;;;;;;;1.00;1.00;;;25.20;65.30;;;;;;5063026;28;20537;-90
2022/07/16 11:49:29;;;;;;;1.63;1.53;;;25.10;67.10;;;;;;5065206;28;20625;-89
2022/07/16 11:51:58;;;;;;;0.90;0.80;;;25.20;67.00;;;;;;5057166;28;20462;-91
2022/07/16 11:54:27;;;;;;;1.80;1.00;;;25.30;66.80;;;;;;5056288;28;20465;-91
2022/07/16 11:56:55;;;;;;;2.53;1.20;;;25.20;65.00;;;;;;5051731;28;20526;-90
2022/07/16 11:59:25;;;;;;;1.33;1.23;;;25.10;62.50;;;;;;5055279;28;20966;-89
2022/07/16 12:02:01;;;;;;;3.00;1.03;;;25.20;67.00;;;;;;5059449;28;20919;-90
2022/07/16 12:04:39;;;;;;;1.13;0.93;;;25.40;67.60;;;;;;5056621;28;20559;-90
2022/07/16 12:07:08;;;;;;;1.00;0.90;;;25.40;63.20;;;;;;5051952;28;20465;-91
2022/07/16 12:09:38;;;;;;;3.70;1.40;;;25.50;64.10;;;;;;5055489;28;21117;-91
2022/07/16 12:12:07;;;;;;;2.27;1.53;;;25.20;62.90;;;;;;5057403;28;20460;-90
2022/07/16 12:14:59;;;;;;;0.93;0.80;;;25.00;64.90;;;;;;5055883;28;20457;-87
2022/07/16 12:17:31;;;;;;;1.97;1.77;;;25.00;62.00;;;;;;5037020;28;20479;-88
2022/07/16 12:20:09;;;;;;;1.30;0.90;;;25.10;68.50;;;;;;5057222;28;20456;-87
2022/07/16 12:22:59;;;;;;;2.10;1.17;;;25.30;64.10;;;;;;5054563;28;20471;-88
2022/07/16 12:25:34;;;;;;;3.53;1.20;;;25.60;67.00;;;;;;5060353;28;20561;-88
2022/07/16 12:28:04;;;;;;;1.53;0.83;;;25.70;63.80;;;;;;5057972;28;20526;-90
2022/07/16 12:30:40;;;;;;;1.07;0.87;;;25.90;63.50;;;;;;5060395;28;20614;-88
2022/07/16 12:33:10;;;;;;;1.63;1.20;;;25.60;60.40;;;;;;5057142;28;20513;-89
2022/07/16 12:35:49;;;;;;;1.80;0.80;;;25.50;64.50;;;;;;5064525;28;21023;-88
2022/07/16 12:38:44;;;;;;;2.80;1.10;;;25.10;60.00;;;;;;5064247;28;20526;-87
2022/07/16 12:41:13;;;;;;;2.13;1.17;;;25.10;57.50;;;;;;5065705;28;21006;-88
2022/07/16 12:43:41;;;;;;;1.47;0.90;;;25.30;60.10;;;;;;5062136;28;20527;-87
2022/07/16 12:46:10;;;;;;;1.17;1.07;;;25.30;59.30;;;;;;5060504;28;21460;-88
2022/07/16 12:48:47;;;;;;;1.27;0.97;;;25.40;59.90;;;;;;5071703;28;20459;-87
2022/07/16 12:51:17;;;;;;;7.93;1.63;;;25.50;59.90;;;;;;5061549;28;20940;-88
2022/07/16 12:53:44;;;;;;;0.97;0.70;;;25.60;59.40;;;;;;5062315;28;20467;-89
2022/07/16 12:58:56;;;;;;;1.23;0.80;;;25.50;57.80;;;;;;5066647;28;21248;-88
2022/07/16 13:01:24;;;;;;;0.80;0.70;;;25.50;55.70;;;;;;5060820;28;20471;-88
2022/07/16 13:03:54;;;;;;;1.37;0.90;;;25.60;57.70;;;;;;5064788;28;20794;-89